Time;durP1;ratioP1;P1;durP2;ratioP2;P2;SDS_P1;SDS_P2;PMS_P1;PMS_P2;Temp;Humidity;BMP_temperature;BMP_pressure;BME280_temperature;BME280_humidity;BME280_pressure;Samples;Min_cycle;Max_cycle;Signal;HPM_P1;HPM_P2
2021/04/24 00:01:44;;;;;;;29.80;17.12;;;;;;;3.66;82.42;99433.27;2217750;80;21283;-82
2021/04/24 00:04:45;;;;;;;24.80;14.78;;;;;;;3.69;82.42;99431.25;2217770;80;21147;-81
2021/04/24 00:07:47;;;;;;;29.98;16.62;;;;;;;3.68;82.30;99428.78;2217848;80;21179;-81
2021/04/24 00:10:52;;;;;;;29.87;16.70;;;;;;;3.67;82.34;99428.44;2217828;80;21297;-81
2021/04/24 00:13:54;;;;;;;25.68;14.95;;;;;;;3.73;82.53;99431.00;2218593;80;21309;-81
2021/04/24 00:16:56;;;;;;;22.75;14.50;;;;;;;3.74;82.44;99436.06;2217569;80;21262;-82
2021/04/24 00:19:58;;;;;;;31.50;16.90;;;;;;;3.74;82.35;99428.77;2217824;80;21136;-82
2021/04/24 00:22:59;;;;;;;34.08;16.55;;;;;;;3.73;82.42;99422.77;2217832;80;21139;-82
2021/04/24 00:26:01;;;;;;;29.75;15.32;;;;;;;3.78;82.33;99424.54;2217431;80;21151;-82
2021/04/24 00:29:04;;;;;;;34.38;17.05;;;;;;;3.78;82.21;99428.89;2217489;80;21302;-81
2021/04/24 00:32:06;;;;;;;28.70;17.05;;;;;;;3.77;82.24;99420.78;2217884;80;21273;-82
2021/04/24 00:35:08;;;;;;;31.00;17.00;;;;;;;3.78;82.20;99418.06;2218107;80;21281;-82
2021/04/24 00:38:10;;;;;;;30.77;16.67;;;;;;;3.80;82.25;99414.87;2217989;80;21713;-82
2021/04/24 00:41:12;;;;;;;27.75;16.30;;;;;;;3.84;82.24;99416.74;2217864;80;21563;-82
2021/04/24 00:44:13;;;;;;;29.92;17.30;;;;;;;3.90;82.29;99415.80;2218090;80;21269;-82
2021/04/24 00:47:15;;;;;;;33.48;17.20;;;;;;;3.93;82.03;99416.02;2217713;80;21305;-81
2021/04/24 00:50:17;;;;;;;31.15;18.10;;;;;;;3.92;81.93;99414.37;2215003;80;21319;-81
2021/04/24 00:53:18;;;;;;;31.42;17.80;;;;;;;3.94;81.93;99417.23;2210592;80;21615;-82
2021/04/24 00:56:20;;;;;;;24.52;15.15;;;;;;;3.91;81.86;99422.63;2210797;80;21182;-82
2021/04/24 00:59:22;;;;;;;36.35;18.20;;;;;;;3.88;81.82;99419.46;2210586;80;21301;-81
2021/04/24 01:02:25;;;;;;;33.58;16.60;;;;;;;3.84;81.86;99418.89;2210880;80;21305;-82
2021/04/24 01:05:27;;;;;;;32.17;16.85;;;;;;;3.82;81.95;99416.87;2210771;80;21286;-82
2021/04/24 01:08:28;;;;;;;27.82;15.05;;;;;;;3.83;81.87;99413.33;2210510;80;21318;-81
2021/04/24 01:11:30;;;;;;;30.57;16.97;;;;;;;3.81;81.92;99415.22;2210876;80;21310;-81
2021/04/24 01:14:32;;;;;;;34.35;18.55;;;;;;;3.81;82.02;99412.63;2210863;80;21155;-82
2021/04/24 01:17:33;;;;;;;38.48;17.35;;;;;;;3.84;82.15;99414.15;2210836;80;21277;-82
2021/04/24 01:20:35;;;;;;;27.95;16.27;;;;;;;3.86;81.88;99418.77;2210478;80;21282;-82
2021/04/24 01:23:37;;;;;;;27.07;15.35;;;;;;;3.87;81.79;99421.70;2210456;80;21341;-82
2021/04/24 01:26:38;;;;;;;36.95;17.98;;;;;;;3.85;81.65;99417.94;2210524;80;21784;-82
2021/04/24 01:29:40;;;;;;;35.40;18.48;;;;;;;3.88;81.79;99409.09;2210756;80;21167;-82
2021/04/24 01:32:42;;;;;;;32.63;16.45;;;;;;;3.90;81.73;99403.31;2210614;80;21309;-82
2021/04/24 01:35:44;;;;;;;32.75;18.07;;;;;;;3.88;81.81;99400.85;2210310;80;21557;-82
2021/04/24 01:38:46;;;;;;;28.12;16.50;;;;;;;3.91;81.80;99404.96;2210492;80;21269;-82
2021/04/24 01:41:47;;;;;;;35.35;18.73;;;;;;;3.85;81.61;99402.40;2210472;80;21261;-82
2021/04/24 01:44:49;;;;;;;35.25;18.02;;;;;;;3.82;81.80;99392.73;2210736;80;21135;-82
2021/04/24 01:47:51;;;;;;;38.92;18.37;;;;;;;3.77;81.68;99387.92;2210824;80;21282;-82
2021/04/24 01:50:53;;;;;;;31.82;16.17;;;;;;;3.71;81.61;99390.98;2214203;80;21327;-82
2021/04/24 01:53:55;;;;;;;25.60;14.40;;;;;;;3.66;81.79;99397.83;2217889;80;21297;-82
2021/04/24 01:56:57;;;;;;;25.65;15.65;;;;;;;3.63;81.90;99400.64;2218056;80;21678;-82
2021/04/24 01:59:59;;;;;;;26.97;15.23;;;;;;;3.58;81.94;99396.30;2217663;80;21298;-82
2021/04/24 02:03:01;;;;;;;35.85;18.87;;;;;;;3.58;81.94;99390.30;2218036;80;21317;-81
2021/04/24 02:06:03;;;;;;;32.60;17.30;;;;;;;3.57;82.06;99389.48;2217958;80;21175;-82
2021/04/24 02:09:05;;;;;;;26.35;15.10;;;;;;;3.56;81.97;99389.56;2217727;80;21765;-81
2021/04/24 02:12:07;;;;;;;28.47;16.15;;;;;;;3.54;81.99;99394.88;2217783;80;21627;-82
2021/04/24 02:15:09;;;;;;;30.25;15.88;;;;;;;3.55;82.10;99391.81;2218133;80;21163;-81
2021/04/24 02:18:11;;;;;;;27.50;16.40;;;;;;;3.56;82.23;99388.27;2217821;80;21294;-82
2021/04/24 02:21:13;;;;;;;26.77;14.07;;;;;;;3.57;82.26;99380.88;2218044;80;21334;-81
2021/04/24 02:24:14;;;;;;;25.88;14.95;;;;;;;3.59;82.11;99393.23;2217739;80;21306;-81
2021/04/24 02:27:16;;;;;;;25.57;13.72;;;;;;;3.62;82.06;99388.63;2218009;80;21297;-82
2021/04/24 02:30:17;;;;;;;35.60;17.90;;;;;;;3.59;81.95;99388.05;2217903;80;21270;-82
2021/04/24 02:33:19;;;;;;;26.85;14.40;;;;;;;3.59;82.04;99395.35;2218120;80;21127;-81
2021/04/24 02:36:21;;;;;;;26.17;14.38;;;;;;;3.60;82.14;99392.29;2218203;80;21293;-82
2021/04/24 02:39:23;;;;;;;32.23;16.07;;;;;;;3.61;82.09;99394.76;2218051;80;21282;-81
2021/04/24 02:42:25;;;;;;;27.67;14.90;;;;;;;3.63;82.19;99395.93;2217664;80;21782;-81
2021/04/24 02:45:27;;;;;;;27.95;14.93;;;;;;;3.63;82.10;99396.75;2218005;80;21313;-81
2021/04/24 02:48:29;;;;;;;28.70;15.03;;;;;;;3.60;82.16;99400.88;2218110;80;21317;-82
2021/04/24 02:51:31;;;;;;;24.98;13.95;;;;;;;3.61;82.06;99398.64;2213434;80;21191;-81
2021/04/24 02:54:33;;;;;;;30.40;16.40;;;;;;;3.60;82.04;99404.77;2211022;80;21183;-82
2021/04/24 02:57:34;;;;;;;37.63;20.30;;;;;;;3.54;81.89;99397.94;2210595;80;21751;-81
2021/04/24 03:00:36;;;;;;;31.85;16.90;;;;;;;3.49;82.07;99402.19;2210788;80;21313;-81
2021/04/24 03:03:38;;;;;;;39.70;19.00;;;;;;;3.48;81.96;99411.38;2211011;80;21131;-82
2021/04/24 03:06:39;;;;;;;26.23;15.45;;;;;;;3.44;81.90;99412.05;2210849;80;21490;-83
2021/04/24 03:09:41;;;;;;;24.52;13.83;;;;;;;3.42;81.92;99408.77;2210893;80;21749;-82
2021/04/24 03:12:43;;;;;;;25.05;15.23;;;;;;;3.40;81.66;99408.89;2210858;80;21592;-81
2021/04/24 03:15:45;;;;;;;28.62;16.20;;;;;;;3.44;81.57;99419.83;2210989;80;21321;-81
2021/04/24 03:18:47;;;;;;;31.70;15.40;;;;;;;3.41;81.38;99419.59;2210619;80;21293;-82
2021/04/24 03:21:49;;;;;;;27.05;13.58;;;;;;;3.40;81.26;99417.95;2210636;80;21195;-83
2021/04/24 03:24:50;;;;;;;33.28;15.85;;;;;;;3.39;80.84;99418.90;2210996;80;21726;-83
2021/04/24 03:27:53;;;;;;;28.98;15.40;;;;;;;3.38;80.91;99420.28;2210613;80;21318;-82
2021/04/24 03:30:54;;;;;;;22.42;11.97;;;;;;;3.36;80.70;99421.70;2210901;80;21762;-82
2021/04/24 03:33:56;;;;;;;32.28;15.70;;;;;;;3.28;80.53;99418.86;2210770;80;21309;-83
2021/04/24 03:36:58;;;;;;;25.15;14.15;;;;;;;3.21;80.49;99426.76;2210595;80;21357;-82
2021/04/24 03:40:00;;;;;;;26.77;15.58;;;;;;;3.16;80.45;99422.39;2210771;80;21147;-83
2021/04/24 03:43:01;;;;;;;31.82;16.55;;;;;;;3.12;80.33;99423.09;2210771;80;21281;-82
2021/04/24 03:46:03;;;;;;;29.18;16.97;;;;;;;3.07;80.28;99413.55;2210486;80;21178;-82
2021/04/24 03:49:05;;;;;;;32.48;16.95;;;;;;;3.03;80.26;99396.62;2210903;80;21172;-81
2021/04/24 03:52:07;;;;;;;26.97;14.45;;;;;;;3.04;80.39;99377.56;2210499;80;21179;-81
2021/04/24 03:55:09;;;;;;;24.32;14.70;;;;;;;3.12;80.44;99388.16;2210787;80;21297;-82
2021/04/24 03:58:11;;;;;;;23.15;13.68;;;;;;;3.28;80.25;99396.86;2210831;80;21328;-81
2021/04/24 04:01:12;;;;;;;25.40;13.65;;;;;;;3.70;80.04;99397.11;2210812;80;21289;-83
2021/04/24 04:04:14;;;;;;;21.48;12.68;;;;;;;4.25;79.94;99399.23;2211002;80;21313;-83
2021/04/24 04:07:15;;;;;;;22.30;13.18;;;;;;;4.93;78.82;99394.08;2210597;80;21702;-81
2021/04/24 04:10:18;;;;;;;23.35;14.47;;;;;;;5.64;78.02;99393.69;2210700;80;21285;-81
2021/04/24 04:13:20;;;;;;;18.37;12.60;;;;;;;6.38;77.43;99392.02;2210707;80;21741;-81
2021/04/24 04:16:21;;;;;;;23.20;14.40;;;;;;;7.11;75.73;99387.98;2210620;80;21293;-81
2021/04/24 04:19:23;;;;;;;20.97;13.43;;;;;;;7.84;75.11;99385.50;2210551;80;21136;-82
2021/04/24 04:22:25;;;;;;;23.83;13.72;;;;;;;8.53;73.96;99391.95;2210814;80;21758;-82
2021/04/24 04:25:27;;;;;;;20.52;12.58;;;;;;;9.21;73.21;99396.03;2210680;80;21774;-81
2021/04/24 04:28:29;;;;;;;16.93;11.18;;;;;;;9.89;72.48;99399.97;2210761;80;21171;-80
2021/04/24 04:31:31;;;;;;;17.77;11.57;;;;;;;10.49;70.83;99408.95;2210565;80;21160;-81
2021/04/24 04:34:33;;;;;;;16.62;12.50;;;;;;;10.78;69.00;99411.59;2210798;80;21587;-80
2021/04/24 04:37:35;;;;;;;21.27;11.73;;;;;;;10.96;68.38;99412.23;2210911;80;21265;-81
2021/04/24 04:40:37;;;;;;;13.72;10.18;;;;;;;10.75;66.64;99407.50;2210789;80;21110;-80
2021/04/24 04:43:39;;;;;;;16.55;11.10;;;;;;;10.75;66.64;99407.50;2210578;80;21139;-81
2021/04/24 04:46:41;;;;;;;16.15;11.43;;;;;;;10.70;66.06;99411.61;2210748;80;21753;-81
2021/04/24 04:49:42;;;;;;;20.43;11.75;;;;;;;10.64;66.05;99411.77;2210785;80;21330;-80
2021/04/24 04:52:44;;;;;;;16.02;10.65;;;;;;;10.64;64.47;99420.93;2216518;80;21762;-81
2021/04/24 04:55:46;;;;;;;16.50;10.82;;;;;;;10.31;59.89;99417.44;2217730;80;21762;-81
2021/04/24 04:58:48;;;;;;;17.40;11.95;;;;;;;9.87;62.40;99422.83;2217882;80;21151;-80
2021/04/24 05:01:49;;;;;;;17.27;10.85;;;;;;;9.48;64.10;99430.33;2217704;80;21183;-81
2021/04/24 05:04:51;;;;;;;17.87;11.60;;;;;;;9.24;64.43;99434.12;2217969;80;21305;-81
2021/04/24 05:07:54;;;;;;;18.52;11.45;;;;;;;8.97;63.87;99435.07;2217556;80;21317;-81
2021/04/24 05:10:55;;;;;;;17.35;11.43;;;;;;;8.67;63.65;99437.09;2218056;80;21131;-81
2021/04/24 05:13:57;;;;;;;19.37;12.28;;;;;;;8.34;63.85;99433.33;2217848;80;21143;-82
2021/04/24 05:16:59;;;;;;;17.67;10.43;;;;;;;8.15;65.02;99434.76;2217729;80;21294;-82
2021/04/24 05:20:01;;;;;;;16.37;11.10;;;;;;;8.04;64.00;99429.72;2217842;80;21174;-82
2021/04/24 05:23:03;;;;;;;17.73;12.55;;;;;;;7.88;64.94;99439.50;2217833;80;21227;-81
2021/04/24 05:26:04;;;;;;;16.07;10.00;;;;;;;8.20;65.28;99440.34;2217805;80;21298;-82
2021/04/24 05:29:06;;;;;;;14.98;10.28;;;;;;;8.55;64.93;99443.02;2217891;80;21325;-81
2021/04/24 05:32:08;;;;;;;19.92;11.12;;;;;;;8.65;64.84;99444.73;2217887;80;21288;-81
2021/04/24 05:35:10;;;;;;;18.92;9.65;;;;;;;8.78;64.73;99451.73;2217831;80;21814;-82
2021/04/24 05:38:12;;;;;;;13.85;9.43;;;;;;;8.90;64.01;99447.09;2217944;80;21270;-81
2021/04/24 05:41:20;;;;;;;15.75;9.48;;;;;;;8.92;62.02;99448.56;2217945;79;21265;-81
2021/04/24 05:44:19;;;;;;;12.53;8.40;;;;;;;9.05;62.67;99452.94;2217137;80;21136;-83
2021/04/24 05:47:21;;;;;;;14.25;8.90;;;;;;;9.01;61.52;99456.80;2217897;80;21203;-84
2021/04/24 05:50:23;;;;;;;14.70;8.13;;;;;;;8.92;61.45;99461.63;2218024;79;21126;-81
2021/04/24 05:53:25;;;;;;;13.30;9.03;;;;;;;8.76;60.34;99456.25;2210876;80;21762;-79
2021/04/24 05:56:27;;;;;;;12.33;8.65;;;;;;;8.60;61.19;99459.56;2210545;80;21206;-80
2021/04/24 05:59:28;;;;;;;13.40;7.90;;;;;;;8.51;61.21;99468.28;2210998;80;21175;-80
2021/04/24 06:02:30;;;;;;;12.93;7.97;;;;;;;8.44;60.74;99463.30;2210638;80;21769;-80
2021/04/24 06:05:31;;;;;;;14.53;7.53;;;;;;;8.35;60.83;99468.10;2210773;80;21258;-81
2021/04/24 06:08:33;;;;;;;13.90;7.83;;;;;;;8.16;60.37;99467.70;2210650;80;21112;-80
2021/04/24 06:11:35;;;;;;;13.48;6.95;;;;;;;8.06;60.59;99470.36;2210320;80;21786;-80
2021/04/24 06:14:37;;;;;;;14.18;8.08;;;;;;;7.97;60.99;99472.05;2210469;80;21186;-80
2021/04/24 06:17:39;;;;;;;10.08;7.35;;;;;;;7.94;61.00;99470.19;2210927;80;21325;-80
2021/04/24 06:20:41;;;;;;;14.50;7.42;;;;;;;7.84;60.94;99472.02;2211007;80;21289;-80
2021/04/24 06:23:42;;;;;;;9.48;6.12;;;;;;;7.83;60.70;99472.50;2210811;80;21305;-81
2021/04/24 06:26:44;;;;;;;10.78;6.47;;;;;;;7.81;60.44;99470.53;2210960;80;21156;-81
2021/04/24 06:29:46;;;;;;;8.65;5.58;;;;;;;7.86;60.95;99480.52;2211041;80;21325;-82
2021/04/24 06:32:48;;;;;;;10.08;6.30;;;;;;;8.04;60.95;99483.19;2211001;80;21465;-80
2021/04/24 06:35:50;;;;;;;12.03;7.30;;;;;;;8.23;60.17;99482.63;2210971;80;21301;-81
2021/04/24 06:38:52;;;;;;;14.40;7.60;;;;;;;8.50;60.25;99486.19;2210698;80;21159;-81
2021/04/24 06:41:55;;;;;;;9.08;6.17;;;;;;;8.76;59.70;99488.41;2211421;80;21308;-81
2021/04/24 06:44:58;;;;;;;12.90;5.87;;;;;;;8.82;57.17;99485.70;2210789;80;21135;-81
2021/04/24 06:48:01;;;;;;;10.68;5.62;;;;;;;8.63;57.08;99488.45;2210676;80;21729;-82
2021/04/24 06:51:03;;;;;;;9.83;5.67;;;;;;;8.62;57.09;99492.04;2211202;80;21717;-82
2021/04/24 06:54:04;;;;;;;6.58;4.45;;;;;;;8.59;56.63;99491.01;2218017;79;21761;-81
2021/04/24 06:57:07;;;;;;;7.70;5.75;;;;;;;8.55;55.90;99486.09;2217901;79;21338;-82
2021/04/24 07:00:08;;;;;;;8.50;4.80;;;;;;;8.51;56.29;99493.89;2217904;79;21187;-81
2021/04/24 07:03:11;;;;;;;6.95;4.37;;;;;;;8.39;54.66;99488.52;2217883;79;21298;-82
2021/04/24 07:06:13;;;;;;;7.00;4.97;;;;;;;8.36;53.77;99494.53;2217916;80;21602;-81
2021/04/24 07:09:15;;;;;;;7.80;5.37;;;;;;;8.38;53.87;99488.67;2217820;79;21274;-81
2021/04/24 07:12:17;;;;;;;8.65;5.47;;;;;;;8.40;53.68;99487.55;2217842;79;21322;-81
2021/04/24 07:15:18;;;;;;;10.23;5.05;;;;;;;8.46;53.47;99481.75;2217826;79;21164;-81
2021/04/24 07:18:24;;;;;;;12.65;5.35;;;;;;;8.64;52.47;99478.34;2217750;80;21176;-81
2021/04/24 07:21:26;;;;;;;10.28;5.85;;;;;;;8.89;53.85;99474.99;2217750;79;21103;-80
2021/04/24 07:24:30;;;;;;;10.05;5.35;;;;;;;9.18;54.33;99482.58;2217791;79;21729;-81
2021/04/24 07:27:32;;;;;;;10.40;5.15;;;;;;;9.37;54.71;99471.93;2217856;80;21325;-79
2021/04/24 07:30:35;;;;;;;12.60;7.00;;;;;;;9.67;54.55;99475.86;2217810;80;21294;-79
2021/04/24 07:33:36;;;;;;;9.98;5.72;;;;;;;9.98;53.52;99474.07;2218047;80;21183;-80
2021/04/24 07:39:54;;;;;;;6.40;4.17;;;;;;;10.35;51.24;99475.54;2250521;79;22947;-79
2021/04/24 07:42:56;;;;;;;6.78;3.42;;;;;;;10.41;48.54;99486.17;2214505;80;21156;-79
2021/04/24 07:45:58;;;;;;;5.53;3.58;;;;;;;10.31;48.19;99493.34;2214819;80;21696;-80
2021/04/24 07:49:00;;;;;;;8.10;4.05;;;;;;;10.09;48.38;99487.36;2214829;80;21268;-79
2021/04/24 07:52:01;;;;;;;6.12;3.80;;;;;;;9.80;49.34;99485.92;2214495;80;21528;-82
2021/04/24 07:55:03;;;;;;;3.75;3.02;;;;;;;9.64;49.95;99481.41;2214407;80;21276;-81
2021/04/24 07:58:05;;;;;;;5.75;3.52;;;;;;;9.62;49.57;99487.29;2214589;80;21606;-80
2021/04/24 08:01:06;;;;;;;8.28;4.40;;;;;;;9.49;48.99;99489.97;2214295;80;21166;-80
2021/04/24 08:04:09;;;;;;;6.97;4.35;;;;;;;9.41;46.97;99490.23;2214120;80;21162;-81
2021/04/24 08:07:11;;;;;;;6.70;3.37;;;;;;;9.36;48.57;99482.54;2214771;80;21142;-80
2021/04/24 08:10:13;;;;;;;7.67;4.08;;;;;;;9.26;47.37;99481.82;2214490;80;21133;-81
2021/04/24 08:13:15;;;;;;;12.60;6.85;;;;;;;9.25;48.62;99481.00;2214542;80;21264;-86
2021/04/24 08:16:17;;;;;;;8.08;3.50;;;;;;;9.32;49.13;99477.27;2214715;80;21312;-81
2021/04/24 08:19:23;;;;;;;10.75;5.00;;;;;;;9.36;48.79;99479.44;2214285;80;21312;-81
2021/04/24 08:22:29;;;;;;;7.62;4.30;;;;;;;9.46;48.22;99475.91;2214732;80;21519;-82
2021/04/24 08:25:32;;;;;;;8.33;3.65;;;;;;;9.60;48.06;99472.70;2214594;80;21272;-81
2021/04/24 08:28:34;;;;;;;7.42;3.72;;;;;;;9.69;47.35;99471.78;2214430;80;21308;-81
2021/04/24 08:31:36;;;;;;;6.33;3.30;;;;;;;9.89;46.96;99473.70;2214476;80;21580;-81
2021/04/24 08:34:38;;;;;;;4.40;3.05;;;;;;;10.21;46.23;99469.89;2214487;80;21130;-82
2021/04/24 08:37:40;;;;;;;5.08;3.27;;;;;;;10.52;46.70;99475.91;2214402;80;21154;-82
2021/04/24 08:40:42;;;;;;;7.87;3.60;;;;;;;10.77;45.06;99471.52;2214235;80;21292;-81
2021/04/24 08:43:44;;;;;;;7.83;5.50;;;;;;;10.98;45.57;99467.94;2214543;80;21139;-81
2021/04/24 08:46:46;;;;;;;6.87;4.28;;;;;;;11.22;46.34;99473.66;2214470;80;21103;-81
2021/04/24 08:49:50;;;;;;;5.58;4.00;;;;;;;11.33;44.52;99468.55;2214271;80;21301;-80
2021/04/24 08:52:53;;;;;;;18.92;10.58;;;;;;;11.44;44.78;99470.86;2213665;80;21280;-81
2021/04/24 08:55:55;;;;;;;15.00;7.85;;;;;;;11.62;44.97;99467.55;2213925;80;21340;-80
2021/04/24 08:58:56;;;;;;;7.20;4.92;;;;;;;11.81;45.18;99455.88;2213658;80;21293;-80
2021/04/24 09:01:58;;;;;;;7.30;4.00;;;;;;;12.03;44.58;99460.05;2213674;80;21157;-81
2021/04/24 09:05:00;;;;;;;6.30;3.83;;;;;;;11.80;42.67;99454.24;2213835;80;21713;-81
2021/04/24 09:08:02;;;;;;;12.30;7.90;;;;;;;11.51;42.91;99461.31;2213728;80;21281;-80
2021/04/24 09:11:04;;;;;;;6.80;4.10;;;;;;;11.27;41.94;99458.26;2213684;80;21299;-80
2021/04/24 09:14:06;;;;;;;5.37;3.10;;;;;;;11.03;41.85;99463.50;2213631;80;21264;-81
2021/04/24 09:17:08;;;;;;;4.80;2.72;;;;;;;10.84;42.63;99451.55;2213737;80;22154;-81
2021/04/24 09:20:09;;;;;;;4.42;2.90;;;;;;;10.81;42.47;99455.81;2213699;80;21257;-81
2021/04/24 09:23:11;;;;;;;4.62;2.95;;;;;;;10.88;42.74;99445.48;2213826;80;21288;-81
2021/04/24 09:26:13;;;;;;;4.22;2.77;;;;;;;11.01;42.87;99452.37;2213824;80;21273;-81
2021/04/24 09:29:15;;;;;;;8.53;4.67;;;;;;;11.09;43.09;99444.02;2213711;80;21697;-81
2021/04/24 09:32:17;;;;;;;7.92;3.72;;;;;;;11.28;43.63;99432.86;2213886;80;21705;-80
2021/04/24 09:35:20;;;;;;;8.50;4.62;;;;;;;11.53;43.58;99431.83;2213647;80;21284;-80
2021/04/24 09:38:23;;;;;;;6.87;2.72;;;;;;;11.79;41.33;99426.31;2217396;80;21763;-81
2021/04/24 09:41:24;;;;;;;5.72;2.60;;;;;;;11.94;41.35;99420.71;2224714;80;21166;-82
2021/04/24 09:44:26;;;;;;;4.37;2.22;;;;;;;12.03;41.81;99425.43;2224936;80;21296;-82
2021/04/24 09:47:28;;;;;;;5.90;2.77;;;;;;;11.94;40.86;99422.52;2224955;80;21685;-82
2021/04/24 09:50:30;;;;;;;7.42;3.92;;;;;;;12.14;41.59;99402.73;2224776;80;21261;-81
2021/04/24 09:53:32;;;;;;;5.87;2.55;;;;;;;12.14;41.59;99402.73;2224761;80;21307;-82
2021/04/24 09:56:34;;;;;;;3.83;2.50;;;;;;;12.08;40.59;99406.06;2224755;80;21280;-81
2021/04/24 09:59:36;;;;;;;7.90;4.42;;;;;;;11.93;41.57;99394.64;2224970;80;21141;-81
2021/04/24 10:02:38;;;;;;;5.83;4.10;;;;;;;11.93;41.57;99394.64;2224857;80;21098;-81
2021/04/24 10:05:41;;;;;;;11.38;6.80;;;;;;;11.89;40.56;99403.86;2224871;80;21149;-81
2021/04/24 10:08:43;;;;;;;8.73;4.70;;;;;;;11.67;40.77;99387.02;2224763;80;21145;-82
2021/04/24 10:11:47;;;;;;;5.25;3.22;;;;;;;11.78;41.87;99385.33;2224673;80;21692;-82
2021/04/24 10:14:51;;;;;;;5.37;2.80;;;;;;;11.89;41.18;99382.88;2224627;80;21312;-81
2021/04/24 10:17:54;;;;;;;10.25;6.90;;;;;;;12.15;41.16;99381.23;2224628;80;21359;-81
2021/04/24 10:20:56;;;;;;;5.40;4.45;;;;;;;12.24;40.57;99382.31;2224738;80;21308;-81
2021/04/24 10:23:58;;;;;;;4.87;3.85;;;;;;;12.27;40.45;99377.73;2224381;80;21168;-81
2021/04/24 10:27:00;;;;;;;7.72;3.50;;;;;;;12.24;42.28;99376.25;2224620;80;21712;-82
2021/04/24 10:30:01;;;;;;;5.70;3.12;;;;;;;12.32;42.62;99377.52;2224700;80;21292;-82
2021/04/24 10:33:04;;;;;;;5.92;3.83;;;;;;;12.37;40.21;99379.62;2225116;80;21268;-83
2021/04/24 10:36:06;;;;;;;4.37;2.55;;;;;;;12.24;40.45;99377.06;2224515;80;21276;-82
2021/04/24 10:39:15;;;;;;;6.30;3.65;;;;;;;12.19;39.51;99372.84;2224602;80;21315;-82
2021/04/24 10:42:19;;;;;;;8.00;5.58;;;;;;;12.26;41.35;99377.41;2224860;80;21277;-82
2021/04/24 10:45:21;;;;;;;12.45;6.45;;;;;;;12.36;39.64;99370.13;2224637;80;21299;-82
2021/04/24 10:48:22;;;;;;;6.22;3.70;;;;;;;12.41;38.12;99372.53;2224615;80;21300;-82
2021/04/24 10:51:24;;;;;;;6.55;3.35;;;;;;;12.44;38.85;99371.38;2224613;80;21304;-82
2021/04/24 10:54:26;;;;;;;6.45;3.55;;;;;;;12.43;39.46;99364.47;2225164;80;21252;-82
2021/04/24 10:57:28;;;;;;;4.60;3.50;;;;;;;12.49;40.45;99371.16;2224872;80;21594;-83
2021/04/24 11:00:30;;;;;;;8.43;3.70;;;;;;;12.51;39.15;99367.03;2224602;80;21126;-85
2021/04/24 11:03:32;;;;;;;5.87;3.30;;;;;;;12.57;39.47;99365.53;2224490;80;21157;-83
2021/04/24 11:06:34;;;;;;;5.78;3.60;;;;;;;12.57;39.47;99365.53;2224887;80;21169;-84
2021/04/24 11:09:36;;;;;;;6.30;4.08;;;;;;;12.49;40.02;99366.41;2224550;80;21307;-82
2021/04/24 11:12:38;;;;;;;6.30;3.08;;;;;;;12.43;40.04;99369.72;2224582;80;21761;-83
2021/04/24 11:15:40;;;;;;;8.25;4.53;;;;;;;12.14;38.34;99363.35;2224717;80;21269;-82
2021/04/24 11:18:42;;;;;;;4.15;3.00;;;;;;;11.82;40.16;99370.92;2224541;80;21138;-83
2021/04/24 11:21:43;;;;;;;7.55;3.80;;;;;;;11.40;39.61;99369.41;2224923;80;21275;-84
2021/04/24 11:24:45;;;;;;;7.42;4.83;;;;;;;11.12;41.07;99379.96;2224838;80;21202;-81
2021/04/24 11:27:46;;;;;;;5.78;3.25;;;;;;;10.82;41.86;99379.67;2224435;80;21315;-81
2021/04/24 11:30:48;;;;;;;5.60;4.08;;;;;;;10.86;41.58;99381.95;2224446;80;22207;-80
2021/04/24 11:33:51;;;;;;;5.67;3.22;;;;;;;10.87;41.86;99381.79;2224961;80;21303;-82
2021/04/24 11:36:53;;;;;;;5.17;3.40;;;;;;;10.91;42.17;99381.80;2224595;80;21211;-80
2021/04/24 11:39:54;;;;;;;7.90;5.55;;;;;;;11.02;41.86;99373.59;2224794;80;21331;-81
2021/04/24 11:42:56;;;;;;;7.95;4.90;;;;;;;11.10;42.52;99368.34;2224941;80;21138;-82
2021/04/24 11:45:59;;;;;;;6.45;4.08;;;;;;;11.15;42.66;99361.27;2224889;80;21288;-83
2021/04/24 11:49:02;;;;;;;5.90;3.87;;;;;;;11.16;42.44;99368.17;2224806;80;21276;-81
2021/04/24 11:52:03;;;;;;;8.20;5.55;;;;;;;11.24;41.79;99355.52;2224838;80;21272;-83
2021/04/24 11:55:05;;;;;;;6.87;4.42;;;;;;;11.44;42.45;99359.41;2224745;80;21126;-81
2021/04/24 11:58:07;;;;;;;6.80;4.15;;;;;;;11.64;41.48;99353.27;2224823;80;21103;-82
2021/04/24 12:01:09;;;;;;;8.28;4.20;;;;;;;11.71;40.80;99354.22;2224546;80;21122;-82
2021/04/24 12:04:11;;;;;;;7.67;5.03;;;;;;;11.79;40.67;99359.91;2224651;80;21296;-82
2021/04/24 12:07:13;;;;;;;9.30;5.87;;;;;;;11.79;40.59;99359.41;2224754;80;21129;-82
2021/04/24 12:10:16;;;;;;;8.75;5.42;;;;;;;11.68;38.71;99361.11;2224638;80;21292;-82
2021/04/24 12:13:19;;;;;;;8.63;4.60;;;;;;;11.54;40.08;99357.41;2224757;80;21300;-81
2021/04/24 12:16:21;;;;;;;7.65;4.83;;;;;;;11.42;40.39;99359.23;2224465;80;21295;-82
2021/04/24 12:19:22;;;;;;;7.90;4.90;;;;;;;11.38;40.84;99349.59;2224453;80;21307;-82
2021/04/24 12:22:24;;;;;;;7.97;4.58;;;;;;;11.40;42.05;99362.03;2224472;80;21360;-83
2021/04/24 12:25:26;;;;;;;7.08;5.20;;;;;;;11.39;42.54;99345.48;2224594;80;21296;-83
2021/04/24 12:28:30;;;;;;;8.85;4.53;;;;;;;11.46;42.40;99356.62;2224569;80;21728;-81
2021/04/24 12:31:32;;;;;;;6.95;4.55;;;;;;;11.62;42.62;99348.20;2224673;80;21762;-82
2021/04/24 12:34:34;;;;;;;7.20;5.08;;;;;;;11.79;41.40;99341.53;2224812;80;21174;-81
2021/04/24 12:37:36;;;;;;;8.25;4.70;;;;;;;12.04;41.81;99333.07;2224763;80;21650;-82
2021/04/24 12:40:39;;;;;;;7.28;4.62;;;;;;;12.29;41.03;99331.92;2216328;80;21193;-81
2021/04/24 12:43:42;;;;;;;8.88;3.90;;;;;;;12.42;40.36;99332.63;2213895;80;21300;-81
2021/04/24 12:46:44;;;;;;;9.03;6.15;;;;;;;12.37;38.69;99313.98;2213569;80;21256;-83
2021/04/24 12:49:46;;;;;;;5.17;3.62;;;;;;;12.45;39.31;99322.61;2213544;80;21335;-82
2021/04/24 12:52:49;;;;;;;8.13;4.78;;;;;;;12.36;38.12;99324.17;2214218;80;21598;-81
2021/04/24 12:55:51;;;;;;;7.03;3.77;;;;;;;12.30;39.41;99321.73;2213688;80;21701;-82
2021/04/24 12:58:55;;;;;;;5.53;3.42;;;;;;;12.23;38.57;99322.11;2213852;80;21161;-81
2021/04/24 13:01:57;;;;;;;5.83;4.00;;;;;;;12.13;38.61;99328.91;2213615;80;21308;-83
2021/04/24 13:04:59;;;;;;;5.62;4.05;;;;;;;12.01;39.12;99322.93;2213869;80;21328;-82
2021/04/24 13:08:01;;;;;;;6.22;4.03;;;;;;;11.92;38.75;99311.66;2214010;80;21749;-82
2021/04/24 13:11:02;;;;;;;9.35;4.60;;;;;;;11.91;39.11;99308.72;2213756;80;21602;-83
2021/04/24 13:14:04;;;;;;;7.03;3.35;;;;;;;12.01;38.96;99301.44;2213779;80;21831;-83
2021/04/24 13:17:06;;;;;;;5.28;3.60;;;;;;;12.27;39.77;99304.22;2213497;80;21131;-84
2021/04/24 13:20:09;;;;;;;4.62;3.08;;;;;;;12.42;38.63;99299.80;2213400;80;21616;-83
2021/04/24 13:23:12;;;;;;;7.40;4.28;;;;;;;12.54;38.52;99294.47;2213666;80;21312;-84
2021/04/24 13:26:14;;;;;;;6.72;4.97;;;;;;;12.68;37.43;99299.42;2213810;80;21312;-84
2021/04/24 13:29:16;;;;;;;12.13;7.45;;;;;;;12.77;37.43;99296.53;2213687;80;21740;-79
2021/04/24 13:32:18;;;;;;;7.75;4.33;;;;;;;12.71;36.70;99293.80;2213600;80;21304;-79
2021/04/24 13:35:20;;;;;;;6.00;4.05;;;;;;;12.54;37.04;99294.47;2214419;80;21473;-80
2021/04/24 13:38:22;;;;;;;21.07;13.40;;;;;;;12.34;37.88;99292.80;2213882;80;21347;-78
2021/04/24 13:41:24;;;;;;;12.82;7.12;;;;;;;12.20;38.16;99281.78;2213846;80;21325;-80
2021/04/24 13:44:26;;;;;;;5.60;4.75;;;;;;;12.21;37.81;99278.97;2213881;80;21289;-80
2021/04/24 13:47:28;;;;;;;9.43;4.90;;;;;;;12.23;38.59;99297.17;2213583;80;21288;-80
2021/04/24 13:50:29;;;;;;;6.35;3.75;;;;;;;12.08;38.48;99286.63;2213560;80;21268;-81
2021/04/24 13:53:34;;;;;;;5.10;3.77;;;;;;;11.89;38.45;99278.72;2213688;80;21281;-80
2021/04/24 13:56:35;;;;;;;7.42;4.47;;;;;;;11.90;39.02;99282.16;2213570;80;21702;-82
2021/04/24 13:59:37;;;;;;;8.85;4.37;;;;;;;12.02;39.11;99281.25;2213379;80;21269;-81
2021/04/24 14:02:39;;;;;;;15.35;9.43;;;;;;;12.16;39.08;99278.70;2213529;80;21292;-81
2021/04/24 14:05:41;;;;;;;13.20;5.75;;;;;;;12.27;39.72;99281.41;2213572;80;21324;-82
2021/04/24 14:08:44;;;;;;;6.60;4.42;;;;;;;12.27;38.56;99275.33;2213736;80;21170;-83
2021/04/24 14:11:46;;;;;;;5.47;4.45;;;;;;;12.27;38.92;99270.09;2213742;80;22169;-80
2021/04/24 14:14:48;;;;;;;5.60;3.45;;;;;;;12.38;38.70;99261.28;2213622;80;21261;-78